FDX91 PAPG-PAJN
Flight info
| Callsign | FDX91 |
|---|---|
| Flight time | 0h 46m |
| Altitude | 6000 |
| Route | DCT |
| Aircraft | C208/L-SDFGR/C |
Departure
| Time | 2026-04-15 21:35 |
|---|---|
| Airport | Petersburg James A Johnson Airport (PAPG) |
Arrival
| Time | 2026-04-15 22:21 |
|---|---|
| Airport | Juneau International Airport (PAJN) |
| Time | Latitude | Longitude | Altitude | Speed | Heading |
|---|---|---|---|---|---|
| 2026-04-15 21:23 | 56.80550 | -132.93471 | 100 ft | 0 kts | 212° |
| 2026-04-15 21:31 | 56.80547 | -132.93470 | 100 ft | 2 kts | 154° |
| 2026-04-15 21:31 | 56.80511 | -132.93423 | 100 ft | 11 kts | 149° |
| 2026-04-15 21:32 | 56.80337 | -132.93626 | 99 ft | 26 kts | 250° |
| 2026-04-15 21:32 | 56.80272 | -132.93971 | 101 ft | 32 kts | 250° |
| 2026-04-15 21:32 | 56.80192 | -132.94392 | 102 ft | 37 kts | 251° |
| 2026-04-15 21:32 | 56.80109 | -132.94867 | 102 ft | 41 kts | 251° |
| 2026-04-15 21:33 | 56.80012 | -132.95365 | 106 ft | 37 kts | 253° |
| 2026-04-15 21:33 | 56.79940 | -132.95769 | 106 ft | 36 kts | 251° |
| 2026-04-15 21:33 | 56.79886 | -132.95864 | 107 ft | 11 kts | 343° |
| 2026-04-15 21:33 | 56.79913 | -132.95842 | 106 ft | 0 kts | 72° |
| 2026-04-15 21:34 | 56.79950 | -132.95659 | 107 ft | 38 kts | 72° |
| 2026-04-15 21:34 | 56.80089 | -132.94942 | 102 ft | 80 kts | 71° |
| 2026-04-15 21:34 | 56.80302 | -132.93848 | 192 ft | 96 kts | 70° |
| 2026-04-15 21:35 | 56.80551 | -132.92718 | 400 ft | 98 kts | 62° |
| 2026-04-15 21:35 | 56.80984 | -132.91805 | 659 ft | 96 kts | 36° |
| 2026-04-15 21:35 | 56.81614 | -132.91312 | 868 ft | 99 kts | 16° |
| 2026-04-15 21:35 | 56.82311 | -132.91097 | 1053 ft | 104 kts | 10° |
| 2026-04-15 21:36 | 56.83036 | -132.90891 | 1242 ft | 107 kts | 7° |
| 2026-04-15 21:36 | 56.83777 | -132.90719 | 1436 ft | 108 kts | 8° |
| 2026-04-15 21:36 | 56.84528 | -132.90527 | 1639 ft | 110 kts | 8° |
| 2026-04-15 21:36 | 56.85290 | -132.90417 | 1821 ft | 110 kts | 355° |
| 2026-04-15 21:37 | 56.86041 | -132.90609 | 2004 ft | 111 kts | 352° |
| 2026-04-15 21:37 | 56.86816 | -132.90796 | 2194 ft | 110 kts | 352° |
| 2026-04-15 21:37 | 56.87573 | -132.90975 | 2373 ft | 109 kts | 352° |
| 2026-04-15 21:37 | 56.88309 | -132.91174 | 2551 ft | 108 kts | 346° |
| 2026-04-15 21:38 | 56.89044 | -132.91520 | 2730 ft | 107 kts | 345° |
| 2026-04-15 21:38 | 56.89799 | -132.91862 | 2883 ft | 116 kts | 346° |
| 2026-04-15 21:38 | 56.90586 | -132.92205 | 3065 ft | 120 kts | 346° |
| 2026-04-15 21:38 | 56.91403 | -132.92667 | 3260 ft | 122 kts | 334° |
| 2026-04-15 21:39 | 56.92183 | -132.93310 | 3449 ft | 124 kts | 334° |
| 2026-04-15 21:39 | 56.92971 | -132.93932 | 3635 ft | 126 kts | 334° |
| 2026-04-15 21:39 | 56.93777 | -132.94575 | 3823 ft | 127 kts | 334° |
| 2026-04-15 21:39 | 56.94600 | -132.95227 | 4014 ft | 128 kts | 334° |
| 2026-04-15 21:40 | 56.95410 | -132.95863 | 4196 ft | 128 kts | 334° |
| 2026-04-15 21:40 | 56.96235 | -132.96501 | 4392 ft | 129 kts | 334° |
| 2026-04-15 21:40 | 56.97065 | -132.97138 | 4581 ft | 130 kts | 335° |
| 2026-04-15 21:40 | 56.97899 | -132.97769 | 4770 ft | 130 kts | 334° |
| 2026-04-15 21:41 | 56.98735 | -132.98393 | 4955 ft | 130 kts | 335° |
| 2026-04-15 21:41 | 56.99569 | -132.99015 | 5136 ft | 130 kts | 335° |
| 2026-04-15 21:41 | 57.00407 | -132.99643 | 5310 ft | 129 kts | 335° |
| 2026-04-15 21:41 | 57.01238 | -133.00270 | 5501 ft | 129 kts | 335° |
| 2026-04-15 21:42 | 57.02069 | -133.00901 | 5685 ft | 129 kts | 335° |
| 2026-04-15 21:42 | 57.02898 | -133.01533 | 5869 ft | 129 kts | 335° |
| 2026-04-15 21:42 | 57.03541 | -133.02589 | 6001 ft | 129 kts | 293° |
| 2026-04-15 21:42 | 57.03818 | -133.04225 | 6009 ft | 139 kts | 284° |
| 2026-04-15 21:43 | 57.04066 | -133.05996 | 6004 ft | 146 kts | 284° |
| 2026-04-15 21:43 | 57.04325 | -133.07839 | 6004 ft | 151 kts | 284° |
| 2026-04-15 21:43 | 57.04584 | -133.09709 | 6084 ft | 149 kts | 284° |
| 2026-04-15 21:43 | 57.04833 | -133.11535 | 6130 ft | 151 kts | 284° |
| 2026-04-15 21:44 | 57.05098 | -133.13450 | 6084 ft | 156 kts | 284° |
| 2026-04-15 21:44 | 57.05370 | -133.15402 | 6039 ft | 159 kts | 284° |
| 2026-04-15 21:44 | 57.05646 | -133.17387 | 5999 ft | 160 kts | 284° |
| 2026-04-15 21:44 | 57.05919 | -133.19356 | 6001 ft | 159 kts | 284° |
| 2026-04-15 21:45 | 57.06190 | -133.21324 | 6000 ft | 158 kts | 284° |
| 2026-04-15 21:45 | 57.06462 | -133.23289 | 5994 ft | 158 kts | 284° |
| 2026-04-15 21:45 | 57.06735 | -133.25244 | 5993 ft | 158 kts | 284° |
| 2026-04-15 21:45 | 57.07008 | -133.27202 | 5992 ft | 158 kts | 284° |
| 2026-04-15 21:46 | 57.07280 | -133.29154 | 5995 ft | 158 kts | 284° |
| 2026-04-15 21:46 | 57.07552 | -133.31108 | 5994 ft | 157 kts | 284° |
| 2026-04-15 21:46 | 57.07823 | -133.33059 | 5993 ft | 157 kts | 284° |
| 2026-04-15 21:46 | 57.08092 | -133.35004 | 5992 ft | 157 kts | 284° |
| 2026-04-15 21:47 | 57.08362 | -133.36945 | 5994 ft | 157 kts | 284° |
| 2026-04-15 21:47 | 57.08632 | -133.38889 | 5994 ft | 157 kts | 284° |
| 2026-04-15 21:47 | 57.08988 | -133.40766 | 5991 ft | 157 kts | 304° |
| 2026-04-15 21:47 | 57.09837 | -133.42028 | 5999 ft | 158 kts | 326° |
| 2026-04-15 21:48 | 57.10763 | -133.43134 | 5995 ft | 159 kts | 325° |
| 2026-04-15 21:48 | 57.11689 | -133.44247 | 5997 ft | 159 kts | 325° |
| 2026-04-15 21:48 | 57.12619 | -133.45363 | 5998 ft | 160 kts | 325° |
| 2026-04-15 21:48 | 57.13550 | -133.46479 | 5998 ft | 160 kts | 325° |
| 2026-04-15 21:49 | 57.14526 | -133.47465 | 5996 ft | 161 kts | 336° |
| 2026-04-15 21:49 | 57.15556 | -133.48200 | 5997 ft | 161 kts | 335° |
| 2026-04-15 21:49 | 57.16585 | -133.49058 | 5999 ft | 160 kts | 333° |
| 2026-04-15 21:49 | 57.17594 | -133.49944 | 5994 ft | 160 kts | 333° |
| 2026-04-15 21:50 | 57.18596 | -133.50830 | 5988 ft | 159 kts | 333° |
| 2026-04-15 21:50 | 57.19584 | -133.51702 | 5984 ft | 157 kts | 332° |
| 2026-04-15 21:50 | 57.20563 | -133.52593 | 5981 ft | 156 kts | 331° |
| 2026-04-15 21:50 | 57.21532 | -133.53456 | 5981 ft | 154 kts | 332° |
| 2026-04-15 21:51 | 57.22501 | -133.54310 | 5981 ft | 154 kts | 332° |
| 2026-04-15 21:51 | 57.23487 | -133.55044 | 5979 ft | 155 kts | 341° |
| 2026-04-15 21:51 | 57.24530 | -133.55587 | 5978 ft | 155 kts | 342° |
| 2026-04-15 21:51 | 57.25552 | -133.56118 | 5978 ft | 155 kts | 342° |
| 2026-04-15 21:52 | 57.26603 | -133.56655 | 5978 ft | 155 kts | 343° |
| 2026-04-15 21:52 | 57.27660 | -133.57075 | 5977 ft | 155 kts | 346° |
| 2026-04-15 21:52 | 57.28705 | -133.57473 | 5978 ft | 155 kts | 346° |
| 2026-04-15 21:52 | 57.29763 | -133.57878 | 5986 ft | 155 kts | 346° |
| 2026-04-15 21:53 | 57.30823 | -133.58282 | 5986 ft | 155 kts | 346° |
| 2026-04-15 21:53 | 57.31882 | -133.58685 | 5986 ft | 155 kts | 346° |
| 2026-04-15 21:53 | 57.32938 | -133.59088 | 5986 ft | 155 kts | 346° |
| 2026-04-15 21:53 | 57.33998 | -133.59491 | 5986 ft | 155 kts | 346° |
| 2026-04-15 21:54 | 57.35056 | -133.59894 | 5990 ft | 155 kts | 346° |
| 2026-04-15 21:54 | 57.36117 | -133.60301 | 5985 ft | 156 kts | 346° |
| 2026-04-15 21:54 | 57.37175 | -133.60705 | 5985 ft | 156 kts | 346° |
| 2026-04-15 21:54 | 57.38235 | -133.61111 | 5985 ft | 156 kts | 346° |
| 2026-04-15 21:55 | 57.39296 | -133.61517 | 5987 ft | 156 kts | 346° |
| 2026-04-15 21:55 | 57.40355 | -133.61922 | 5986 ft | 156 kts | 346° |
| 2026-04-15 21:55 | 57.41072 | -133.62196 | 5987 ft | 156 kts | 346° |
| 2026-04-15 21:55 | 57.42133 | -133.62603 | 5986 ft | 156 kts | 346° |
| 2026-04-15 21:56 | 57.43196 | -133.63010 | 5981 ft | 156 kts | 346° |
| 2026-04-15 21:56 | 57.44257 | -133.63415 | 5981 ft | 156 kts | 346° |
| 2026-04-15 21:56 | 57.45319 | -133.63820 | 5981 ft | 156 kts | 346° |
| 2026-04-15 21:56 | 57.46378 | -133.64224 | 5981 ft | 156 kts | 346° |
| 2026-04-15 21:57 | 57.47437 | -133.64629 | 5984 ft | 156 kts | 346° |
| 2026-04-15 21:57 | 57.48503 | -133.65036 | 5991 ft | 156 kts | 346° |
| 2026-04-15 21:57 | 57.49563 | -133.65447 | 5992 ft | 156 kts | 346° |
| 2026-04-15 21:57 | 57.50627 | -133.65867 | 5992 ft | 156 kts | 346° |
| 2026-04-15 21:58 | 57.51688 | -133.66283 | 5990 ft | 156 kts | 346° |
| 2026-04-15 21:58 | 57.52747 | -133.66701 | 5991 ft | 156 kts | 346° |
| 2026-04-15 21:58 | 57.53807 | -133.67121 | 5991 ft | 156 kts | 346° |
| 2026-04-15 21:58 | 57.54870 | -133.67533 | 5995 ft | 156 kts | 346° |
| 2026-04-15 21:59 | 57.55934 | -133.67933 | 5994 ft | 156 kts | 346° |
| 2026-04-15 21:59 | 57.56995 | -133.68329 | 5993 ft | 156 kts | 346° |
| 2026-04-15 21:59 | 57.58057 | -133.68728 | 5993 ft | 156 kts | 346° |
| 2026-04-15 21:59 | 57.59117 | -133.69125 | 5991 ft | 155 kts | 346° |
| 2026-04-15 22:00 | 57.60167 | -133.69520 | 5987 ft | 154 kts | 346° |
| 2026-04-15 22:00 | 57.61218 | -133.69912 | 5981 ft | 154 kts | 346° |
| 2026-04-15 22:00 | 57.62265 | -133.70300 | 5981 ft | 153 kts | 346° |
| 2026-04-15 22:00 | 57.63309 | -133.70686 | 5982 ft | 153 kts | 346° |
| 2026-04-15 22:01 | 57.64356 | -133.71073 | 5982 ft | 153 kts | 346° |
| 2026-04-15 22:01 | 57.65406 | -133.71464 | 5982 ft | 153 kts | 346° |
| 2026-04-15 22:01 | 57.66451 | -133.71855 | 5982 ft | 153 kts | 346° |
| 2026-04-15 22:01 | 57.67493 | -133.72247 | 5977 ft | 153 kts | 346° |
| 2026-04-15 22:02 | 57.68536 | -133.72638 | 5992 ft | 153 kts | 346° |
| 2026-04-15 22:02 | 57.69556 | -133.73173 | 5983 ft | 152 kts | 337° |
| 2026-04-15 22:02 | 57.70543 | -133.73860 | 5996 ft | 151 kts | 337° |
| 2026-04-15 22:02 | 57.71531 | -133.74544 | 5996 ft | 152 kts | 337° |
| 2026-04-15 22:03 | 57.72525 | -133.75234 | 5996 ft | 152 kts | 337° |
| 2026-04-15 22:03 | 57.73516 | -133.75923 | 5989 ft | 152 kts | 337° |
| 2026-04-15 22:03 | 57.74509 | -133.76612 | 5989 ft | 152 kts | 337° |
| 2026-04-15 22:03 | 57.75487 | -133.77292 | 5989 ft | 152 kts | 336° |
| 2026-04-15 22:04 | 57.76478 | -133.77981 | 5989 ft | 152 kts | 336° |
| 2026-04-15 22:04 | 57.77469 | -133.78669 | 5989 ft | 152 kts | 337° |
| 2026-04-15 22:04 | 57.78460 | -133.79359 | 5989 ft | 152 kts | 337° |
| 2026-04-15 22:04 | 57.79451 | -133.80049 | 5989 ft | 152 kts | 336° |
| 2026-04-15 22:05 | 57.80440 | -133.80735 | 5988 ft | 152 kts | 337° |
| 2026-04-15 22:05 | 57.81436 | -133.81428 | 5988 ft | 152 kts | 337° |
| 2026-04-15 22:05 | 57.82428 | -133.82120 | 5988 ft | 152 kts | 337° |
| 2026-04-15 22:05 | 57.83422 | -133.82813 | 5989 ft | 152 kts | 336° |
| 2026-04-15 22:06 | 57.84412 | -133.83505 | 6011 ft | 151 kts | 336° |
| 2026-04-15 22:06 | 57.85398 | -133.84189 | 6005 ft | 152 kts | 336° |
| 2026-04-15 22:06 | 57.86399 | -133.84853 | 6007 ft | 153 kts | 336° |
| 2026-04-15 22:06 | 57.87406 | -133.85519 | 6008 ft | 154 kts | 336° |
| 2026-04-15 22:07 | 57.88414 | -133.86185 | 6008 ft | 154 kts | 337° |
| 2026-04-15 22:07 | 57.89426 | -133.86857 | 6007 ft | 154 kts | 337° |
| 2026-04-15 22:07 | 57.90436 | -133.87528 | 6010 ft | 154 kts | 337° |
| 2026-04-15 22:07 | 57.91448 | -133.88201 | 6026 ft | 154 kts | 337° |
| 2026-04-15 22:08 | 57.92461 | -133.88875 | 6026 ft | 154 kts | 336° |
| 2026-04-15 22:08 | 57.93469 | -133.89544 | 6026 ft | 154 kts | 336° |
| 2026-04-15 22:08 | 57.94417 | -133.90433 | 6022 ft | 150 kts | 315° |
| 2026-04-15 22:08 | 57.95168 | -133.91814 | 5964 ft | 153 kts | 313° |
| 2026-04-15 22:09 | 57.95979 | -133.93177 | 5841 ft | 159 kts | 316° |
| 2026-04-15 22:09 | 57.96832 | -133.94520 | 5706 ft | 162 kts | 317° |
| 2026-04-15 22:09 | 57.97707 | -133.95877 | 5580 ft | 164 kts | 317° |
| 2026-04-15 22:09 | 57.98591 | -133.97249 | 5452 ft | 165 kts | 317° |
| 2026-04-15 22:10 | 57.99476 | -133.98624 | 5324 ft | 165 kts | 317° |
| 2026-04-15 22:10 | 58.00363 | -134.00003 | 5193 ft | 166 kts | 317° |
| 2026-04-15 22:10 | 58.01252 | -134.01388 | 5066 ft | 166 kts | 317° |
| 2026-04-15 22:10 | 58.02136 | -134.02763 | 5016 ft | 162 kts | 317° |
| 2026-04-15 22:11 | 58.02989 | -134.04097 | 5012 ft | 158 kts | 317° |
| 2026-04-15 22:11 | 58.03827 | -134.05404 | 5006 ft | 155 kts | 317° |
| 2026-04-15 22:11 | 58.04656 | -134.06700 | 5002 ft | 154 kts | 317° |
| 2026-04-15 22:11 | 58.05478 | -134.07985 | 4991 ft | 153 kts | 317° |
| 2026-04-15 22:12 | 58.06296 | -134.09262 | 4996 ft | 152 kts | 317° |
| 2026-04-15 22:12 | 58.07109 | -134.10534 | 4991 ft | 152 kts | 317° |
| 2026-04-15 22:12 | 58.07919 | -134.11802 | 4992 ft | 151 kts | 317° |
| 2026-04-15 22:12 | 58.08730 | -134.13071 | 4995 ft | 152 kts | 317° |
| 2026-04-15 22:13 | 58.09549 | -134.14353 | 4997 ft | 154 kts | 317° |
| 2026-04-15 22:13 | 58.10386 | -134.15636 | 5002 ft | 155 kts | 317° |
| 2026-04-15 22:13 | 58.11203 | -134.16948 | 5001 ft | 154 kts | 317° |
| 2026-04-15 22:13 | 58.12025 | -134.18245 | 5004 ft | 154 kts | 318° |
| 2026-04-15 22:14 | 58.12874 | -134.19530 | 4899 ft | 161 kts | 322° |
| 2026-04-15 22:14 | 58.13970 | -134.20182 | 4698 ft | 172 kts | 353° |
| 2026-04-15 22:14 | 58.15165 | -134.20353 | 4493 ft | 172 kts | 352° |
| 2026-04-15 22:14 | 58.16350 | -134.20583 | 4281 ft | 170 kts | 352° |
| 2026-04-15 22:15 | 58.17522 | -134.20861 | 4098 ft | 168 kts | 345° |
| 2026-04-15 22:15 | 58.18498 | -134.21806 | 4088 ft | 156 kts | 318° |
| 2026-04-15 22:15 | 58.19248 | -134.23223 | 4088 ft | 150 kts | 312° |
| 2026-04-15 22:15 | 58.19980 | -134.24600 | 4092 ft | 147 kts | 313° |
| 2026-04-15 22:16 | 58.20719 | -134.25992 | 3971 ft | 153 kts | 313° |
| 2026-04-15 22:16 | 58.21485 | -134.27437 | 3844 ft | 156 kts | 313° |
| 2026-04-15 22:16 | 58.22290 | -134.28861 | 3672 ft | 160 kts | 314° |
| 2026-04-15 22:16 | 58.23130 | -134.30262 | 3565 ft | 159 kts | 320° |
| 2026-04-15 22:17 | 58.24009 | -134.31528 | 3440 ft | 160 kts | 321° |
| 2026-04-15 22:17 | 58.24851 | -134.32838 | 3395 ft | 156 kts | 315° |
| 2026-04-15 22:17 | 58.25509 | -134.34479 | 3235 ft | 158 kts | 294° |
| 2026-04-15 22:17 | 58.26120 | -134.36228 | 3069 ft | 161 kts | 310° |
| 2026-04-15 22:18 | 58.26893 | -134.37759 | 2903 ft | 160 kts | 308° |
| 2026-04-15 22:18 | 58.27650 | -134.39296 | 2752 ft | 159 kts | 317° |
| 2026-04-15 22:18 | 58.28475 | -134.40680 | 2579 ft | 157 kts | 316° |
| 2026-04-15 22:18 | 58.29242 | -134.42127 | 2407 ft | 154 kts | 313° |
| 2026-04-15 22:19 | 58.30007 | -134.43562 | 2116 ft | 152 kts | 316° |
| 2026-04-15 22:19 | 58.30792 | -134.44850 | 1761 ft | 145 kts | 319° |
| 2026-04-15 22:19 | 58.31577 | -134.46047 | 1557 ft | 144 kts | 320° |
| 2026-04-15 22:19 | 58.32371 | -134.47217 | 1361 ft | 144 kts | 321° |
| 2026-04-15 22:20 | 58.33169 | -134.48437 | 1112 ft | 148 kts | 317° |
| 2026-04-15 22:20 | 58.33923 | -134.49714 | 985 ft | 145 kts | 316° |
| 2026-04-15 22:20 | 58.34577 | -134.50946 | 610 ft | 123 kts | 298° |
| 2026-04-15 22:20 | 58.34764 | -134.52287 | 498 ft | 98 kts | 280° |
| 2026-04-15 22:21 | 58.34906 | -134.53378 | 365 ft | 78 kts | 285° |
| 2026-04-15 22:21 | 58.35026 | -134.54293 | 167 ft | 67 kts | 281° |
| 2026-04-15 22:21 | 58.35140 | -134.55099 | 62 ft | 57 kts | 284° |
| 2026-04-15 22:21 | 58.35231 | -134.55732 | 31 ft | 39 kts | 287° |
| 2026-04-15 22:22 | 58.35301 | -134.56200 | 32 ft | 36 kts | 284° |
| 2026-04-15 22:22 | 58.35350 | -134.56559 | 34 ft | 19 kts | 285° |
| 2026-04-15 22:22 | 58.35468 | -134.56693 | 32 ft | 17 kts | 316° |
| 2026-04-15 22:22 | 58.35540 | -134.56800 | 32 ft | 15 kts | 12° |
| 2026-04-15 22:23 | 58.35585 | -134.56689 | 32 ft | 0 kts | 101° |